Time,TemperatureF,DewpointF,PressureIn,WindDirection,WindDirectionDegrees,WindSpeedMPH,WindSpeedGustMPH,Humidity,HourlyPrecipIn,Conditions,Clouds,dailyrainin,SoftwareType,DateUTC
2013-08-03 00:00:00,72.1,71.5,28.86,North,360,0.0,0.0,98,0.00,CLR,FEW,0.00,WeatherDisplay:10.37,2013-08-03 04:00:00,
2013-08-03 00:01:00,72.1,71.5,28.86,NNW,338,0.0,0.0,98,0.00,CLR,FEW,0.00,WeatherDisplay:10.37,2013-08-03 04:01:00,
2013-08-03 00:02:00,72.0,71.4,28.86,West,270,0.0,0.0,98,0.00,CLR,FEW,0.00,WeatherDisplay:10.37,2013-08-03 04:02:00,
2013-08-03 00:07:00,71.8,71.2,28.86,NNW,338,0.0,0.0,98,0.00,CLR,FEW,0.00,WeatherDisplay:10.37,2013-08-03 04:07:00,
2013-08-03 00:12:00,71.8,71.2,28.86,NW,315,0.0,0.0,98,0.00,CLR,FEW,0.00,WeatherDisplay:10.37,2013-08-03 04:12:00,
2013-08-03 00:17:00,71.6,71.0,28.86,West,270,0.0,0.0,98,0.00,CLR,FEW,0.00,WeatherDisplay:10.37,2013-08-03 04:17:00,
2013-08-03 00:23:00,71.6,71.0,28.86,WNW,292,0.0,0.0,98,0.00,CLR,FEW,0.00,WeatherDisplay:10.37,2013-08-03 04:23:00,
2013-08-03 00:28:00,71.6,71.0,28.86,ESE,112,2.3,2.3,98,0.00,CLR,FEW,0.00,WeatherDisplay:10.37,2013-08-03 04:28:00,
2013-08-03 00:33:00,71.6,71.0,28.86,NW,315,0.0,0.0,98,0.00,CLR,FEW,0.00,WeatherDisplay:10.37,2013-08-03 04:33:00,
2013-08-03 00:38:00,71.6,71.0,28.86,West,270,0.0,0.0,98,0.00,CLR,FEW,0.00,WeatherDisplay:10.37,2013-08-03 04:38:00,
2013-08-03 00:43:00,71.6,71.0,28.86,WNW,292,0.0,0.0,98,0.00,CLR,FEW,0.00,WeatherDisplay:10.37,2013-08-03 04:43:00,
2013-08-03 00:48:00,71.4,70.8,28.86,WNW,292,0.0,0.0,98,0.00,CLR,FEW,0.00,WeatherDisplay:10.37,2013-08-03 04:48:00,
2013-08-03 00:53:00,71.2,70.6,28.86,North,360,0.0,0.0,98,0.00,CLR,FEW,0.00,WeatherDisplay:10.37,2013-08-03 04:53:00,
2013-08-03 00:58:00,71.2,70.6,28.86,NNE,22,0.0,0.0,98,0.00,CLR,FEW,0.00,WeatherDisplay:10.37,2013-08-03 04:58:00,
2013-08-03 01:03:00,71.2,70.6,28.86,North,360,0.0,0.0,98,0.00,CLR,FEW,0.00,WeatherDisplay:10.37,2013-08-03 05:03:00,
2013-08-03 01:08:00,71.2,70.6,28.86,NW,315,0.0,0.0,98,0.00,CLR,FEW,0.00,WeatherDisplay:10.37,2013-08-03 05:08:00,
2013-08-03 01:13:00,71.2,70.6,28.86,North,360,0.0,0.0,98,0.00,CLR,FEW,0.00,WeatherDisplay:10.37,2013-08-03 05:13:00,
2013-08-03 01:18:00,71.1,70.5,28.86,North,360,0.0,0.0,98,0.00,CLR,FEW,0.00,WeatherDisplay:10.37,2013-08-03 05:18:00,
2013-08-03 01:23:00,70.9,70.3,28.86,West,270,0.0,0.0,98,0.00,CLR,FEW,0.00,WeatherDisplay:10.37,2013-08-03 05:23:00,
2013-08-03 01:28:00,70.9,70.3,28.86,WNW,292,0.0,0.0,98,0.00,CLR,FEW,0.00,WeatherDisplay:10.37,2013-08-03 05:28:00,
2013-08-03 01:33:00,70.9,70.3,28.86,NW,315,0.0,0.0,98,0.00,CLR,FEW,0.00,WeatherDisplay:10.37,2013-08-03 05:33:00,
2013-08-03 01:39:00,70.9,70.3,28.86,West,270,0.0,0.0,98,0.00,CLR,FEW,0.00,WeatherDisplay:10.37,2013-08-03 05:39:00,
2013-08-03 01:44:00,70.9,70.3,28.86,North,360,0.0,0.0,98,0.00,CLR,FEW,0.00,WeatherDisplay:10.37,2013-08-03 05:44:00,
2013-08-03 01:49:00,70.9,70.3,28.86,NE,45,0.0,0.0,98,0.00,CLR,FEW,0.00,WeatherDisplay:10.37,2013-08-03 05:49:00,
2013-08-03 01:54:00,70.9,70.3,28.86,ENE,68,0.0,0.0,98,0.00,CLR,FEW,0.00,WeatherDisplay:10.37,2013-08-03 05:54:00,
2013-08-03 01:59:00,70.9,70.3,28.85,ENE,68,0.0,0.0,98,0.00,CLR,FEW,0.00,WeatherDisplay:10.37,2013-08-03 05:59:00,
2013-08-03 02:04:00,70.7,70.1,28.85,NW,315,0.0,0.0,98,0.00,CLR,FEW,0.00,WeatherDisplay:10.37,2013-08-03 06:04:00,
2013-08-03 02:09:00,70.5,69.9,28.85,NW,315,0.0,0.0,98,0.00,CLR,FEW,0.00,WeatherDisplay:10.37,2013-08-03 06:09:00,
2013-08-03 02:14:00,70.5,69.9,28.85,NW,315,0.0,0.0,98,0.00,CLR,FEW,0.00,WeatherDisplay:10.37,2013-08-03 06:14:00,
2013-08-03 02:19:00,70.3,69.7,28.85,NE,45,0.0,0.0,98,0.00,CLR,FEW,0.00,WeatherDisplay:10.37,2013-08-03 06:19:00,
2013-08-03 02:24:00,70.2,69.6,28.85,NNE,22,0.0,0.0,98,0.00,CLR,FEW,0.00,WeatherDisplay:10.37,2013-08-03 06:24:00,
2013-08-03 02:29:00,70.2,69.6,28.85,NW,315,0.0,0.0,98,0.00,CLR,FEW,0.00,WeatherDisplay:10.37,2013-08-03 06:29:00,
2013-08-03 02:34:00,70.0,69.4,28.85,NW,315,0.0,0.0,98,0.00,CLR,FEW,0.00,WeatherDisplay:10.37,2013-08-03 06:34:00,
2013-08-03 02:39:00,70.0,69.4,28.85,NW,315,0.0,0.0,98,0.00,CLR,FEW,0.00,WeatherDisplay:10.37,2013-08-03 06:39:00,
2013-08-03 02:44:00,69.8,69.2,28.85,NW,315,0.0,0.0,98,0.00,CLR,FEW,0.00,WeatherDisplay:10.37,2013-08-03 06:44:00,
2013-08-03 02:49:00,69.4,68.8,28.85,NW,315,0.0,0.0,98,0.00,CLR,FEW,0.00,WeatherDisplay:10.37,2013-08-03 06:49:00,
2013-08-03 02:54:00,69.4,68.8,28.85,NW,315,0.0,0.0,98,0.00,CLR,FEW,0.00,WeatherDisplay:10.37,2013-08-03 06:54:00,
2013-08-03 02:59:00,69.4,68.8,28.84,NW,315,0.0,0.0,98,0.00,CLR,FEW,0.00,WeatherDisplay:10.37,2013-08-03 06:59:00,
2013-08-03 03:05:00,69.3,68.7,28.84,NW,315,0.0,0.0,98,0.00,CLR,FEW,0.00,WeatherDisplay:10.37,2013-08-03 07:05:00,
2013-08-03 03:10:00,69.1,68.5,28.84,NW,315,0.0,0.0,98,0.00,CLR,FEW,0.00,WeatherDisplay:10.37,2013-08-03 07:10:00,
2013-08-03 03:15:00,69.1,68.5,28.84,NNE,22,0.0,0.0,98,0.00,CLR,FEW,0.00,WeatherDisplay:10.37,2013-08-03 07:15:00,
2013-08-03 03:20:00,69.1,68.5,28.84,NNE,22,0.0,0.0,98,0.00,CLR,FEW,0.00,WeatherDisplay:10.37,2013-08-03 07:20:00,
2013-08-03 03:25:00,69.3,68.7,28.84,NNE,22,0.0,0.0,98,0.00,CLR,FEW,0.00,WeatherDisplay:10.37,2013-08-03 07:25:00,
2013-08-03 03:30:00,69.4,68.8,28.84,NW,315,0.0,0.0,98,0.00,CLR,FEW,0.00,WeatherDisplay:10.37,2013-08-03 07:30:00,
2013-08-03 03:35:00,69.1,68.5,28.84,NW,315,0.0,0.0,98,0.00,CLR,FEW,0.00,WeatherDisplay:10.37,2013-08-03 07:35:00,
2013-08-03 03:40:00,68.9,68.3,28.84,NW,315,0.0,0.0,98,0.00,CLR,FEW,0.00,WeatherDisplay:10.37,2013-08-03 07:40:00,
2013-08-03 03:45:00,68.9,68.3,28.84,NW,315,0.0,0.0,98,0.00,CLR,FEW,0.00,WeatherDisplay:10.37,2013-08-03 07:45:00,
2013-08-03 03:50:00,69.1,68.5,28.84,South,180,0.0,0.0,98,0.00,CLR,FEW,0.00,WeatherDisplay:10.37,2013-08-03 07:50:00,
2013-08-03 03:55:00,68.9,68.3,28.84,SSW,202,0.0,0.0,98,0.00,CLR,FEW,0.00,WeatherDisplay:10.37,2013-08-03 07:55:00,
2013-08-03 04:00:00,68.7,68.1,28.84,WSW,248,0.0,0.0,98,0.00,CLR,FEW,0.00,WeatherDisplay:10.37,2013-08-03 08:00:00,
2013-08-03 04:05:00,68.7,68.1,28.84,WSW,248,0.0,0.0,98,0.00,CLR,FEW,0.00,WeatherDisplay:10.37,2013-08-03 08:05:00,
2013-08-03 04:10:00,68.7,68.1,28.83,WSW,248,0.0,0.0,98,0.00,CLR,FEW,0.00,WeatherDisplay:10.37,2013-08-03 08:10:00,
2013-08-03 04:16:00,68.7,68.1,28.83,WSW,248,0.0,0.0,98,0.00,CLR,FEW,0.00,WeatherDisplay:10.37,2013-08-03 08:16:00,
2013-08-03 04:21:00,68.7,68.1,28.83,West,270,0.0,0.0,98,0.00,CLR,FEW,0.00,WeatherDisplay:10.37,2013-08-03 08:21:00,
2013-08-03 04:26:00,68.7,68.1,28.84,West,270,0.0,0.0,98,0.00,CLR,FEW,0.00,WeatherDisplay:10.37,2013-08-03 08:26:00,
2013-08-03 04:31:00,68.2,67.6,28.84,West,270,0.0,0.0,98,0.00,CLR,FEW,0.00,WeatherDisplay:10.37,2013-08-03 08:31:00,
2013-08-03 04:36:00,68.2,67.6,28.83,West,270,0.0,0.0,98,0.00,CLR,FEW,0.00,WeatherDisplay:10.37,2013-08-03 08:36:00,
2013-08-03 04:41:00,68.2,67.6,28.83,West,270,0.0,0.0,98,0.00,CLR,FEW,0.00,WeatherDisplay:10.37,2013-08-03 08:41:00,
2013-08-03 04:46:00,68.2,67.6,28.84,WSW,248,0.0,0.0,98,0.00,CLR,FEW,0.00,WeatherDisplay:10.37,2013-08-03 08:46:00,
2013-08-03 04:51:00,68.2,67.6,28.84,WSW,248,0.0,0.0,98,0.00,CLR,FEW,0.00,WeatherDisplay:10.37,2013-08-03 08:51:00,
2013-08-03 04:56:00,68.2,67.6,28.84,WSW,248,0.0,0.0,98,0.00,CLR,FEW,0.00,WeatherDisplay:10.37,2013-08-03 08:56:00,
2013-08-03 05:01:00,68.2,67.6,28.84,WSW,248,0.0,0.0,98,0.00,CLR,FEW,0.00,WeatherDisplay:10.37,2013-08-03 09:01:00,
2013-08-03 05:07:00,68.2,67.6,28.84,WSW,248,0.0,0.0,98,0.00,CLR,FEW,0.00,WeatherDisplay:10.37,2013-08-03 09:07:00,
2013-08-03 05:12:00,68.2,67.6,28.83,WSW,248,0.0,0.0,98,0.00,CLR,FEW,0.00,WeatherDisplay:10.37,2013-08-03 09:12:00,
2013-08-03 05:17:00,68.2,67.6,28.83,WSW,248,0.0,0.0,98,0.00,CLR,FEW,0.00,WeatherDisplay:10.37,2013-08-03 09:17:00,
2013-08-03 05:22:00,68.4,67.8,28.83,NW,315,0.0,0.0,98,0.00,CLR,FEW,0.00,WeatherDisplay:10.37,2013-08-03 09:22:00,
2013-08-03 05:27:00,68.4,67.8,28.83,NW,315,0.0,0.0,98,0.00,CLR,FEW,0.00,WeatherDisplay:10.37,2013-08-03 09:27:00,
2013-08-03 05:32:00,68.4,67.8,28.83,West,270,0.0,0.0,98,0.00,CLR,FEW,0.00,WeatherDisplay:10.37,2013-08-03 09:32:00,
2013-08-03 05:37:00,68.4,67.8,28.83,West,270,0.0,0.0,98,0.00,CLR,FEW,0.00,WeatherDisplay:10.37,2013-08-03 09:37:00,
2013-08-03 05:42:00,68.2,67.6,28.83,West,270,0.0,0.0,98,0.00,CLR,FEW,0.00,WeatherDisplay:10.37,2013-08-03 09:42:00,
2013-08-03 05:47:00,68.2,67.6,28.84,SSW,202,0.0,0.0,98,0.00,CLR,FEW,0.00,WeatherDisplay:10.37,2013-08-03 09:47:00,
2013-08-03 05:52:00,68.5,67.9,28.84,ESE,112,0.0,0.0,98,0.00,CLR,FEW,0.00,WeatherDisplay:10.37,2013-08-03 09:52:00,
2013-08-03 05:57:00,68.5,67.9,28.84,ESE,112,0.0,0.0,98,0.00,CLR,FEW,0.00,WeatherDisplay:10.37,2013-08-03 09:57:00,
2013-08-03 06:02:00,68.5,67.9,28.83,East,90,0.0,0.0,98,0.00,CLR,FEW,0.00,WeatherDisplay:10.37,2013-08-03 10:02:00,
2013-08-03 06:07:00,68.5,67.9,28.83,East,90,0.0,0.0,98,0.00,CLR,FEW,0.00,WeatherDisplay:10.37,2013-08-03 10:07:00,
2013-08-03 06:12:00,68.5,67.9,28.84,ENE,68,0.0,0.0,98,0.00,CLR,FEW,0.00,WeatherDisplay:10.37,2013-08-03 10:12:00,
2013-08-03 06:17:00,68.5,67.9,28.84,ENE,68,0.0,0.0,98,0.00,CLR,FEW,0.00,WeatherDisplay:10.37,2013-08-03 10:17:00,
2013-08-03 06:23:00,68.4,67.8,28.84,WSW,248,0.0,0.0,98,0.00,CLR,FEW,0.00,WeatherDisplay:10.37,2013-08-03 10:23:00,
2013-08-03 06:28:00,68.4,67.8,28.84,WSW,248,0.0,0.0,98,0.00,CLR,FEW,0.00,WeatherDisplay:10.37,2013-08-03 10:28:00,
2013-08-03 06:33:00,68.4,67.8,28.84,West,270,0.0,0.0,98,0.00,CLR,FEW,0.00,WeatherDisplay:10.37,2013-08-03 10:33:00,
2013-08-03 06:38:00,68.4,67.8,28.84,West,270,0.0,0.0,98,0.00,CLR,FEW,0.00,WeatherDisplay:10.37,2013-08-03 10:38:00,
2013-08-03 06:43:00,68.4,67.8,28.84,West,270,0.0,0.0,98,0.00,CLR,FEW,0.00,WeatherDisplay:10.37,2013-08-03 10:43:00,
2013-08-03 06:48:00,68.4,67.8,28.84,West,270,0.0,0.0,98,0.00,CLR,FEW,0.00,WeatherDisplay:10.37,2013-08-03 10:48:00,
2013-08-03 06:53:00,68.4,67.8,28.84,West,270,0.0,0.0,98,0.00,CLR,FEW,0.00,WeatherDisplay:10.37,2013-08-03 10:53:00,
2013-08-03 06:58:00,68.4,67.8,28.84,West,270,0.0,0.0,98,0.00,CLR,FEW,0.00,WeatherDisplay:10.37,2013-08-03 10:58:00,
2013-08-03 07:03:00,68.4,67.8,28.84,West,270,0.0,0.0,98,0.00,CLR,FEW,0.00,WeatherDisplay:10.37,2013-08-03 11:03:00,
2013-08-03 07:08:00,68.4,67.8,28.84,West,270,0.0,0.0,98,0.00,CLR,FEW,0.00,WeatherDisplay:10.37,2013-08-03 11:08:00,
2013-08-03 07:13:00,68.4,67.8,28.83,West,270,0.0,0.0,98,0.00,CLR,FEW,0.00,WeatherDisplay:10.37,2013-08-03 11:13:00,
2013-08-03 07:18:00,68.4,67.8,28.83,West,270,0.0,0.0,98,0.00,CLR,FEW,0.00,WeatherDisplay:10.37,2013-08-03 11:18:00,
2013-08-03 07:23:00,68.4,67.8,28.84,West,270,0.0,0.0,98,0.00,CLR,FEW,0.00,WeatherDisplay:10.37,2013-08-03 11:23:00,
2013-08-03 07:28:00,68.4,67.8,28.84,West,270,0.0,0.0,98,0.00,CLR,FEW,0.00,WeatherDisplay:10.37,2013-08-03 11:28:00,
2013-08-03 07:33:00,70.0,69.4,28.84,SSW,202,0.0,0.0,98,0.00,CLR,FEW,0.00,WeatherDisplay:10.37,2013-08-03 11:33:00,
2013-08-03 07:38:00,70.2,69.6,28.84,SSW,202,0.0,0.0,98,0.00,CLR,FEW,0.00,WeatherDisplay:10.37,2013-08-03 11:38:00,
2013-08-03 07:44:00,70.7,70.1,28.84,South,180,0.0,0.0,98,0.00,CLR,FEW,0.00,WeatherDisplay:10.37,2013-08-03 11:44:00,
2013-08-03 07:49:00,70.9,70.3,28.85,SE,135,0.0,0.0,98,0.00,CLR,FEW,0.00,WeatherDisplay:10.37,2013-08-03 11:49:00,
2013-08-03 07:54:00,71.1,70.5,28.85,SE,135,0.0,0.0,98,0.00,CLR,FEW,0.00,WeatherDisplay:10.37,2013-08-03 11:54:00,
2013-08-03 07:59:00,71.2,70.6,28.85,South,180,0.0,0.0,98,0.00,CLR,FEW,0.00,WeatherDisplay:10.37,2013-08-03 11:59:00,
2013-08-03 08:04:00,71.4,70.8,28.85,SE,135,0.0,0.0,98,0.00,CLR,FEW,0.00,WeatherDisplay:10.37,2013-08-03 12:04:00,
2013-08-03 08:09:00,71.6,71.0,28.85,South,180,0.0,0.0,98,0.00,CLR,FEW,0.00,WeatherDisplay:10.37,2013-08-03 12:09:00,
2013-08-03 08:14:00,71.6,71.0,28.85,South,180,0.0,0.0,98,0.00,CLR,FEW,0.00,WeatherDisplay:10.37,2013-08-03 12:14:00,
2013-08-03 08:19:00,72.9,72.3,28.85,SSE,158,0.0,0.0,98,0.00,CLR,FEW,0.00,WeatherDisplay:10.37,2013-08-03 12:19:00,
2013-08-03 08:24:00,72.9,72.3,28.85,SSE,158,0.0,0.0,98,0.00,CLR,FEW,0.00,WeatherDisplay:10.37,2013-08-03 12:24:00,
2013-08-03 08:29:00,74.3,73.7,28.85,ESE,112,2.3,2.3,98,0.00,CLR,FEW,0.00,WeatherDisplay:10.37,2013-08-03 12:29:00,
2013-08-03 08:34:00,75.2,74.6,28.85,SE,135,2.7,2.7,98,0.00,CLR,FEW,0.00,WeatherDisplay:10.37,2013-08-03 12:34:00,
2013-08-03 08:39:00,75.2,74.6,28.85,SE,135,2.7,2.7,98,0.00,CLR,FEW,0.00,WeatherDisplay:10.37,2013-08-03 12:39:00,
2013-08-03 08:44:00,77.7,77.1,28.85,SE,135,2.3,2.6,98,0.00,CLR,FEW,0.00,WeatherDisplay:10.37,2013-08-03 12:44:00,
2013-08-03 08:49:00,77.7,77.1,28.85,SSE,158,2.3,2.3,98,0.00,CLR,FEW,0.00,WeatherDisplay:10.37,2013-08-03 12:49:00,
2013-08-03 08:54:00,77.7,75.8,28.85,West,270,2.3,2.3,94,0.00,CLR,FEW,0.00,WeatherDisplay:10.37,2013-08-03 12:54:00,
2013-08-03 08:59:00,76.5,75.9,28.85,South,180,2.3,0.0,98,0.00,CLR,FEW,0.00,WeatherDisplay:10.37,2013-08-03 12:59:00,
2013-08-03 09:05:00,77.0,75.8,28.85,West,270,1.2,0.0,96,0.00,CLR,FEW,0.00,WeatherDisplay:10.37,2013-08-03 13:05:00,
2013-08-03 09:10:00,77.0,75.8,28.85,SW,225,1.7,1.7,96,0.00,CLR,FEW,0.00,WeatherDisplay:10.37,2013-08-03 13:10:00,
2013-08-03 09:15:00,81.0,76.4,28.85,WSW,248,3.5,3.5,86,0.00,CLR,FEW,0.00,WeatherDisplay:10.37,2013-08-03 13:15:00,
2013-08-03 09:20:00,81.7,76.7,28.85,WSW,248,3.7,3.7,85,0.00,CLR,FEW,0.00,WeatherDisplay:10.37,2013-08-03 13:20:00,
2013-08-03 09:25:00,83.1,76.7,28.85,West,270,0.0,0.0,81,0.00,CLR,FEW,0.00,WeatherDisplay:10.37,2013-08-03 13:25:00,
2013-08-03 09:30:00,83.5,76.3,28.85,West,270,3.5,3.5,79,0.00,CLR,FEW,0.00,WeatherDisplay:10.37,2013-08-03 13:30:00,
2013-08-03 09:35:00,83.8,75.8,28.85,SSW,202,4.7,4.7,77,0.00,CLR,FEW,0.00,WeatherDisplay:10.37,2013-08-03 13:35:00,
2013-08-03 09:40:00,82.6,75.4,28.85,SSW,202,4.6,4.6,79,0.00,CLR,FEW,0.00,WeatherDisplay:10.37,2013-08-03 13:40:00,
2013-08-03 09:45:00,83.8,75.4,28.85,SSW,202,3.5,3.5,76,0.00,CLR,FEW,0.00,WeatherDisplay:10.37,2013-08-03 13:45:00,
2013-08-03 09:50:00,80.4,75.1,28.85,SSW,202,4.6,4.6,84,0.00,CLR,FEW,0.00,WeatherDisplay:10.37,2013-08-03 13:50:00,
2013-08-03 09:55:00,79.9,74.3,28.85,South,180,4.6,4.6,83,0.00,CLR,FEW,0.00,WeatherDisplay:10.37,2013-08-03 13:55:00,
2013-08-03 10:00:00,79.7,74.1,28.85,South,180,4.6,4.6,83,0.00,CLR,FEW,0.00,WeatherDisplay:10.37,2013-08-03 14:00:00,
2013-08-03 10:05:00,80.1,73.7,28.85,SSW,202,3.2,3.2,81,0.00,CLR,FEW,0.00,WeatherDisplay:10.37,2013-08-03 14:05:00,
2013-08-03 10:10:00,80.8,73.3,28.85,West,270,4.6,4.6,78,0.00,CLR,FEW,0.00,WeatherDisplay:10.37,2013-08-03 14:10:00,
2013-08-03 10:15:00,81.3,72.6,28.85,SSW,202,4.7,4.7,75,0.00,CLR,FEW,0.00,WeatherDisplay:10.37,2013-08-03 14:15:00,
2013-08-03 10:21:00,81.3,73.8,28.85,West,270,3.7,3.7,78,0.00,CLR,FEW,0.00,WeatherDisplay:10.37,2013-08-03 14:21:00,
2013-08-03 10:26:00,82.0,72.9,28.85,SSW,202,5.8,5.8,74,0.00,CLR,FEW,0.00,WeatherDisplay:10.37,2013-08-03 14:26:00,
2013-08-03 10:31:00,82.6,73.9,28.85,South,180,4.6,4.6,75,0.00,CLR,FEW,0.00,WeatherDisplay:10.37,2013-08-03 14:31:00,
2013-08-03 10:36:00,82.6,74.3,28.85,SW,225,3.5,3.5,76,0.00,CLR,FEW,0.00,WeatherDisplay:10.37,2013-08-03 14:36:00,
2013-08-03 10:41:00,82.8,74.1,28.85,SW,225,1.7,1.7,75,0.00,CLR,FEW,0.00,WeatherDisplay:10.37,2013-08-03 14:41:00,
2013-08-03 10:46:00,82.9,74.6,28.85,West,270,2.7,2.7,76,0.00,CLR,FEW,0.00,WeatherDisplay:10.37,2013-08-03 14:46:00,
2013-08-03 10:51:00,83.3,73.3,28.85,South,180,5.8,5.8,72,0.00,CLR,FEW,0.00,WeatherDisplay:10.37,2013-08-03 14:51:00,
2013-08-03 10:56:00,83.3,72.5,28.85,WSW,248,4.6,4.6,70,0.00,CLR,FEW,0.00,WeatherDisplay:10.37,2013-08-03 14:56:00,
2013-08-03 11:02:00,83.3,72.5,28.85,WSW,248,2.7,2.7,70,0.00,CLR,FEW,0.00,WeatherDisplay:10.37,2013-08-03 15:02:00,
2013-08-03 11:07:00,83.8,72.5,28.85,WSW,248,7.3,7.3,69,0.00,CLR,FEW,0.00,WeatherDisplay:10.37,2013-08-03 15:07:00,
2013-08-03 11:12:00,84.4,72.7,28.84,SW,225,6.9,6.9,68,0.00,CLR,FEW,0.00,WeatherDisplay:10.37,2013-08-03 15:12:00,
2013-08-03 11:17:00,84.6,72.0,28.84,SE,135,3.5,3.5,66,0.00,CLR,FEW,0.00,WeatherDisplay:10.37,2013-08-03 15:17:00,
2013-08-03 11:22:00,84.9,72.3,28.85,West,270,4.6,4.6,66,0.00,CLR,FEW,0.00,WeatherDisplay:10.37,2013-08-03 15:22:00,
2013-08-03 11:27:00,86.0,72.4,28.85,SW,225,4.6,4.6,64,0.00,CLR,FEW,0.00,WeatherDisplay:10.37,2013-08-03 15:27:00,
2013-08-03 11:32:00,84.9,70.9,28.85,SW,225,5.8,5.8,63,0.00,CLR,FEW,0.00,WeatherDisplay:10.37,2013-08-03 15:32:00,
2013-08-03 11:37:00,84.9,69.9,28.85,West,270,5.8,5.9,61,0.00,CLR,FEW,0.00,WeatherDisplay:10.37,2013-08-03 15:37:00,
2013-08-03 11:38:00,84.9,69.9,28.85,West,270,7.3,7.3,61,0.00,CLR,FEW,0.00,WeatherDisplay:10.37,2013-08-03 15:38:00,
2013-08-03 11:43:00,85.1,70.1,28.85,SSW,202,5.8,5.8,61,0.00,CLR,FEW,0.00,WeatherDisplay:10.37,2013-08-03 15:43:00,
2013-08-03 11:48:00,84.2,68.3,28.84,WNW,292,6.9,6.9,59,0.00,CLR,FEW,0.00,WeatherDisplay:10.37,2013-08-03 15:48:00,
2013-08-03 11:53:00,84.4,68.0,28.84,WNW,292,5.8,5.8,58,0.00,CLR,FEW,0.00,WeatherDisplay:10.37,2013-08-03 15:53:00,
2013-08-03 11:58:00,84.6,69.7,28.84,South,180,4.6,4.6,61,0.00,CLR,FEW,0.00,WeatherDisplay:10.37,2013-08-03 15:58:00,
2013-08-03 12:03:00,85.5,69.0,28.85,SW,225,5.8,5.8,58,0.00,CLR,FEW,0.00,WeatherDisplay:10.37,2013-08-03 16:03:00,
2013-08-03 12:08:00,85.3,68.8,28.85,West,270,5.8,5.8,58,0.00,CLR,FEW,0.00,WeatherDisplay:10.37,2013-08-03 16:08:00,
2013-08-03 12:13:00,85.3,69.8,28.84,SW,225,5.8,5.8,60,0.00,CLR,FEW,0.00,WeatherDisplay:10.37,2013-08-03 16:13:00,
2013-08-03 12:18:00,85.8,70.8,28.84,West,270,6.9,6.9,61,0.00,CLR,FEW,0.00,WeatherDisplay:10.37,2013-08-03 16:18:00,
2013-08-03 12:23:00,86.4,70.9,28.84,NNW,338,6.3,6.3,60,0.00,CLR,FEW,0.00,WeatherDisplay:10.37,2013-08-03 16:23:00,
2013-08-03 12:28:00,84.7,69.3,28.84,WNW,292,5.8,5.8,60,0.00,CLR,FEW,0.00,WeatherDisplay:10.37,2013-08-03 16:28:00,
2013-08-03 12:33:00,84.7,69.3,28.84,SW,225,5.8,5.8,60,0.00,CLR,FEW,0.00,WeatherDisplay:10.37,2013-08-03 16:33:00,
2013-08-03 12:39:00,85.1,68.7,28.84,West,270,7.3,7.3,58,0.00,CLR,FEW,0.00,WeatherDisplay:10.37,2013-08-03 16:39:00,
2013-08-03 12:44:00,85.3,70.3,28.84,South,180,3.5,3.5,61,0.00,CLR,FEW,0.00,WeatherDisplay:10.37,2013-08-03 16:44:00,
2013-08-03 12:49:00,86.4,69.4,28.85,SW,225,3.5,3.5,57,0.00,CLR,FEW,0.00,WeatherDisplay:10.37,2013-08-03 16:49:00,
2013-08-03 12:54:00,85.5,70.0,28.85,West,270,8.1,8.1,60,0.00,CLR,FEW,0.00,WeatherDisplay:10.37,2013-08-03 16:54:00,
2013-08-03 12:59:00,86.0,70.0,28.85,SW,225,6.9,6.9,59,0.00,CLR,FEW,0.00,WeatherDisplay:10.37,2013-08-03 16:59:00,
2013-08-03 13:04:00,85.3,70.3,28.84,South,180,6.9,6.9,61,0.00,CLR,FEW,0.00,WeatherDisplay:10.37,2013-08-03 17:04:00,
2013-08-03 13:09:00,85.3,70.3,28.84,WSW,248,5.8,5.8,61,0.00,CLR,FEW,0.00,WeatherDisplay:10.37,2013-08-03 17:09:00,
2013-08-03 13:14:00,87.1,71.5,28.84,SSW,202,5.8,5.8,60,0.00,CLR,FEW,0.00,WeatherDisplay:10.37,2013-08-03 17:14:00,
2013-08-03 13:19:00,85.3,69.3,28.84,SW,225,5.3,5.3,59,0.00,CLR,FEW,0.00,WeatherDisplay:10.37,2013-08-03 17:19:00,
2013-08-03 13:24:00,84.6,69.7,28.84,West,270,5.8,5.8,61,0.00,CLR,FEW,0.00,WeatherDisplay:10.37,2013-08-03 17:24:00,
2013-08-03 13:29:00,85.3,72.2,28.84,West,270,5.8,5.8,65,0.00,CLR,FEW,0.00,WeatherDisplay:10.37,2013-08-03 17:29:00,
2013-08-03 13:34:00,86.4,70.4,28.84,WSW,248,5.8,5.8,59,0.00,CLR,FEW,0.00,WeatherDisplay:10.37,2013-08-03 17:34:00,
2013-08-03 13:39:00,86.9,70.3,28.84,WSW,248,5.8,5.8,58,0.00,CLR,FEW,0.00,WeatherDisplay:10.37,2013-08-03 17:39:00,
2013-08-03 13:44:00,85.1,69.7,28.84,SSW,202,5.3,5.3,60,0.00,CLR,FEW,0.00,WeatherDisplay:10.37,2013-08-03 17:44:00,
2013-08-03 13:49:00,84.7,69.8,28.84,SW,225,5.8,5.8,61,0.00,CLR,FEW,0.00,WeatherDisplay:10.37,2013-08-03 17:49:00,
2013-08-03 13:54:00,84.9,69.5,28.84,SSE,158,6.9,6.9,60,0.00,CLR,FEW,0.00,WeatherDisplay:10.37,2013-08-03 17:54:00,
2013-08-03 14:00:00,85.3,69.8,28.84,SW,225,10.4,10.4,60,0.00,CLR,FEW,0.00,WeatherDisplay:10.37,2013-08-03 18:00:00,
2013-08-03 14:04:00,85.3,70.8,28.84,West,270,6.9,6.9,62,0.00,CLR,FEW,0.00,WeatherDisplay:10.37,2013-08-03 18:04:00,
2013-08-03 14:10:00,86.4,70.4,28.84,West,270,4.6,4.6,59,0.00,CLR,FEW,0.00,WeatherDisplay:10.37,2013-08-03 18:10:00,
2013-08-03 14:15:00,85.8,69.3,28.84,SW,225,4.6,4.6,58,0.00,CLR,FEW,0.00,WeatherDisplay:10.37,2013-08-03 18:15:00,
2013-08-03 14:20:00,85.8,70.3,28.84,WSW,248,5.8,5.8,60,0.00,CLR,FEW,0.00,WeatherDisplay:10.37,2013-08-03 18:20:00,
2013-08-03 14:25:00,85.1,69.7,28.83,SW,225,4.7,4.7,60,0.00,CLR,FEW,0.00,WeatherDisplay:10.37,2013-08-03 18:25:00,
2013-08-03 14:30:00,86.5,70.0,28.83,SSW,202,6.3,6.3,58,0.00,CLR,FEW,0.00,WeatherDisplay:10.37,2013-08-03 18:30:00,
2013-08-03 14:35:00,86.7,70.2,28.83,SW,225,6.3,6.3,58,0.00,CLR,FEW,0.00,WeatherDisplay:10.37,2013-08-03 18:35:00,
2013-08-03 14:40:00,86.2,70.7,28.83,ESE,112,4.6,4.6,60,0.00,CLR,FEW,0.00,WeatherDisplay:10.37,2013-08-03 18:40:00,
2013-08-03 14:45:00,86.2,70.2,28.83,SSW,202,6.9,6.9,59,0.00,CLR,FEW,0.00,WeatherDisplay:10.37,2013-08-03 18:45:00,
2013-08-03 14:50:00,86.2,70.2,28.83,West,270,8.1,8.1,59,0.00,CLR,FEW,0.00,WeatherDisplay:10.37,2013-08-03 18:50:00,
2013-08-03 14:55:00,85.8,70.3,28.83,West,270,8.1,8.1,60,0.00,CLR,FEW,0.00,WeatherDisplay:10.37,2013-08-03 18:55:00,
2013-08-03 15:00:00,84.4,70.0,28.82,West,270,5.8,5.8,62,0.00,CLR,FEW,0.00,WeatherDisplay:10.37,2013-08-03 19:00:00,
2013-08-03 15:05:00,84.9,71.4,28.82,SW,225,5.8,5.8,64,0.00,CLR,FEW,0.00,WeatherDisplay:10.37,2013-08-03 19:05:00,
2013-08-03 15:11:00,85.5,71.9,28.82,SW,225,4.7,4.7,64,0.00,CLR,FEW,0.00,WeatherDisplay:10.37,2013-08-03 19:11:00,
2013-08-03 15:16:00,87.3,71.7,28.82,SW,225,6.9,6.9,60,0.00,CLR,FEW,0.00,WeatherDisplay:10.37,2013-08-03 19:16:00,
2013-08-03 15:21:00,87.3,71.2,28.82,SW,225,6.3,6.3,59,0.00,CLR,FEW,0.00,WeatherDisplay:10.37,2013-08-03 19:21:00,
2013-08-03 15:26:00,87.1,71.0,28.82,SW,225,6.3,6.3,59,0.00,CLR,FEW,0.00,WeatherDisplay:10.37,2013-08-03 19:26:00,
2013-08-03 15:31:00,87.1,71.0,28.82,SW,225,6.3,6.3,59,0.00,CLR,FEW,0.00,WeatherDisplay:10.37,2013-08-03 19:31:00,
2013-08-03 15:36:00,86.0,71.5,28.82,WSW,248,6.3,6.3,62,0.00,CLR,FEW,0.00,WeatherDisplay:10.37,2013-08-03 19:36:00,
2013-08-03 15:41:00,87.6,72.5,28.82,West,270,9.2,9.2,61,0.00,CLR,FEW,0.00,WeatherDisplay:10.37,2013-08-03 19:41:00,
2013-08-03 15:46:00,86.7,73.1,28.82,SW,225,5.8,5.8,64,0.00,CLR,FEW,0.00,WeatherDisplay:10.37,2013-08-03 19:46:00,
2013-08-03 15:51:00,86.9,71.3,28.81,SSW,202,5.8,5.8,60,0.00,CLR,FEW,0.00,WeatherDisplay:10.37,2013-08-03 19:51:00,
2013-08-03 15:57:00,85.3,71.3,28.81,West,270,6.3,6.3,63,0.00,CLR,FEW,0.00,WeatherDisplay:10.37,2013-08-03 19:57:00,
2013-08-03 16:02:00,84.6,71.1,28.81,SW,225,4.6,4.6,64,0.00,CLR,FEW,0.00,WeatherDisplay:10.37,2013-08-03 20:02:00,
2013-08-03 16:07:00,85.3,70.8,28.81,WSW,248,5.8,5.8,62,0.00,CLR,FEW,0.00,WeatherDisplay:10.37,2013-08-03 20:07:00,
2013-08-03 16:12:00,85.3,71.3,28.81,SSW,202,5.8,5.8,63,0.00,CLR,FEW,0.00,WeatherDisplay:10.37,2013-08-03 20:12:00,
2013-08-03 16:17:00,84.7,71.6,28.81,SSW,202,5.8,5.8,65,0.00,CLR,FEW,0.00,WeatherDisplay:10.37,2013-08-03 20:17:00,
2013-08-03 16:22:00,84.0,71.4,28.81,SW,225,4.6,4.6,66,0.00,CLR,FEW,0.00,WeatherDisplay:10.37,2013-08-03 20:22:00,
2013-08-03 16:27:00,84.2,72.5,28.81,SW,225,1.7,1.7,68,0.00,CLR,FEW,0.00,WeatherDisplay:10.37,2013-08-03 20:27:00,
2013-08-03 16:32:00,85.3,72.6,28.81,West,270,6.9,6.9,66,0.00,CLR,FEW,0.00,WeatherDisplay:10.37,2013-08-03 20:32:00,
2013-08-03 16:37:00,86.2,72.6,28.81,West,270,6.9,6.9,64,0.00,CLR,FEW,0.00,WeatherDisplay:10.37,2013-08-03 20:37:00,
2013-08-03 16:42:00,85.1,72.0,28.81,SSW,202,5.8,5.8,65,0.00,CLR,FEW,0.00,WeatherDisplay:10.37,2013-08-03 20:42:00,
2013-08-03 16:47:00,85.3,72.2,28.80,SW,225,5.8,5.8,65,0.00,CLR,FEW,0.00,WeatherDisplay:10.37,2013-08-03 20:47:00,
2013-08-03 16:52:00,84.9,71.4,28.80,WSW,248,6.9,6.9,64,0.00,CLR,FEW,0.00,WeatherDisplay:10.37,2013-08-03 20:52:00,
2013-08-03 16:57:00,84.4,72.2,28.80,SW,225,3.5,3.5,67,0.00,CLR,FEW,0.00,WeatherDisplay:10.37,2013-08-03 20:57:00,
2013-08-03 17:03:00,84.4,72.2,28.79,SSW,202,4.6,4.6,67,0.00,CLR,FEW,0.00,WeatherDisplay:10.37,2013-08-03 21:03:00,
2013-08-03 17:07:00,85.3,70.8,28.79,SW,225,6.9,6.9,62,0.00,CLR,FEW,0.00,WeatherDisplay:10.37,2013-08-03 21:07:00,
2013-08-03 17:13:00,85.8,72.7,28.79,SW,225,3.7,3.7,65,0.00,CLR,FEW,0.00,WeatherDisplay:10.37,2013-08-03 21:13:00,
2013-08-03 17:18:00,85.3,71.7,28.79,West,270,6.3,6.3,64,0.00,CLR,FEW,0.00,WeatherDisplay:10.37,2013-08-03 21:18:00,
2013-08-03 17:23:00,86.0,71.9,28.80,SW,225,5.8,5.8,63,0.00,CLR,FEW,0.00,WeatherDisplay:10.37,2013-08-03 21:23:00,
2013-08-03 17:28:00,86.2,72.6,28.80,SSW,202,9.4,9.4,64,0.00,CLR,FEW,0.00,WeatherDisplay:10.37,2013-08-03 21:28:00,
2013-08-03 17:33:00,85.6,72.0,28.80,WSW,248,5.8,5.8,64,0.00,CLR,FEW,0.00,WeatherDisplay:10.37,2013-08-03 21:33:00,
2013-08-03 17:38:00,85.8,72.2,28.79,West,270,4.7,4.7,64,0.00,CLR,FEW,0.00,WeatherDisplay:10.37,2013-08-03 21:38:00,
2013-08-03 17:43:00,86.0,71.9,28.79,WSW,248,5.8,5.8,63,0.00,CLR,FEW,0.00,WeatherDisplay:10.37,2013-08-03 21:43:00,
2013-08-03 17:48:00,86.4,72.8,28.79,WSW,248,3.5,3.5,64,0.00,CLR,FEW,0.00,WeatherDisplay:10.37,2013-08-03 21:48:00,
2013-08-03 17:53:00,86.4,72.3,28.79,SSW,202,4.6,4.6,63,0.00,CLR,FEW,0.00,WeatherDisplay:10.37,2013-08-03 21:53:00,
2013-08-03 17:58:00,85.3,71.7,28.78,NNW,338,4.6,4.6,64,0.00,CLR,FEW,0.00,WeatherDisplay:10.37,2013-08-03 21:58:00,
2013-08-03 18:03:00,86.0,73.3,28.78,WSW,248,2.7,2.7,66,0.00,CLR,FEW,0.00,WeatherDisplay:10.37,2013-08-03 22:03:00,
2013-08-03 18:08:00,85.3,72.6,28.78,SW,225,3.5,3.5,66,0.00,CLR,FEW,0.00,WeatherDisplay:10.37,2013-08-03 22:08:00,
2013-08-03 18:13:00,84.7,72.5,28.79,WSW,248,3.7,3.7,67,0.00,CLR,FEW,0.00,WeatherDisplay:10.37,2013-08-03 22:13:00,
2013-08-03 18:19:00,84.4,71.3,28.79,SSW,202,3.5,3.5,65,0.00,CLR,FEW,0.00,WeatherDisplay:10.37,2013-08-03 22:19:00,
2013-08-03 18:24:00,83.8,72.5,28.78,WSW,248,4.6,4.6,69,0.00,CLR,FEW,0.00,WeatherDisplay:10.37,2013-08-03 22:24:00,
2013-08-03 18:29:00,83.5,72.7,28.78,SW,225,2.3,2.3,70,0.00,CLR,FEW,0.00,WeatherDisplay:10.37,2013-08-03 22:29:00,
2013-08-03 18:34:00,84.2,72.5,28.78,West,270,3.5,3.5,68,0.00,CLR,FEW,0.00,WeatherDisplay:10.37,2013-08-03 22:34:00,
2013-08-03 18:39:00,84.4,72.2,28.78,SW,225,3.7,3.7,67,0.00,CLR,FEW,0.00,WeatherDisplay:10.37,2013-08-03 22:39:00,
2013-08-03 18:44:00,84.2,72.9,28.78,SSW,202,0.0,0.0,69,0.00,CLR,FEW,0.00,WeatherDisplay:10.37,2013-08-03 22:44:00,
2013-08-03 18:49:00,84.4,73.5,28.79,SSW,202,2.3,2.3,70,0.00,CLR,FEW,0.00,WeatherDisplay:10.37,2013-08-03 22:49:00,
2013-08-03 18:54:00,85.1,73.8,28.79,SSW,202,0.0,0.0,69,0.00,CLR,FEW,0.00,WeatherDisplay:10.37,2013-08-03 22:54:00,
2013-08-03 18:59:00,86.0,74.2,28.78,SW,225,0.0,0.0,68,0.00,CLR,FEW,0.00,WeatherDisplay:10.37,2013-08-03 22:59:00,
2013-08-03 19:04:00,84.6,73.3,28.78,SW,225,0.0,0.0,69,0.00,CLR,FEW,0.00,WeatherDisplay:10.37,2013-08-03 23:04:00,
2013-08-03 19:09:00,84.4,73.5,28.78,SW,225,2.7,2.7,70,0.00,CLR,FEW,0.00,WeatherDisplay:10.37,2013-08-03 23:09:00,
2013-08-03 19:14:00,84.2,73.3,28.79,WSW,248,0.0,0.0,70,0.00,CLR,FEW,0.00,WeatherDisplay:10.37,2013-08-03 23:14:00,
2013-08-03 19:19:00,83.3,73.3,28.79,WSW,248,1.7,1.7,72,0.00,CLR,FEW,0.00,WeatherDisplay:10.37,2013-08-03 23:19:00,
2013-08-03 19:24:00,83.5,73.1,28.79,WSW,248,2.7,2.7,71,0.00,CLR,FEW,0.00,WeatherDisplay:10.37,2013-08-03 23:24:00,
2013-08-03 19:29:00,82.4,72.5,28.79,SSE,158,1.2,1.3,72,0.00,CLR,FEW,0.00,WeatherDisplay:10.37,2013-08-03 23:29:00,
2013-08-03 19:35:00,81.9,72.4,28.79,South,180,2.3,2.3,73,0.00,CLR,FEW,0.00,WeatherDisplay:10.37,2013-08-03 23:35:00,
2013-08-03 19:40:00,82.0,72.9,28.79,South,180,1.2,1.2,74,0.00,CLR,FEW,0.00,WeatherDisplay:10.37,2013-08-03 23:40:00,
2013-08-03 19:45:00,81.3,72.6,28.79,SE,135,0.0,0.0,75,0.00,CLR,FEW,0.00,WeatherDisplay:10.37,2013-08-03 23:45:00,
2013-08-03 19:50:00,81.7,72.6,28.79,ESE,112,0.0,0.0,74,0.00,CLR,FEW,0.00,WeatherDisplay:10.37,2013-08-03 23:50:00,
2013-08-03 19:55:00,81.0,72.7,28.79,SSE,158,0.0,0.0,76,0.00,CLR,FEW,0.00,WeatherDisplay:10.37,2013-08-03 23:55:00,
2013-08-03 20:00:00,80.6,72.7,28.79,SE,135,0.0,0.0,77,0.00,CLR,FEW,0.00,WeatherDisplay:10.37,2013-08-04 00:00:00,
2013-08-03 20:05:00,80.2,72.7,28.79,WNW,292,0.0,0.0,78,0.00,CLR,FEW,0.00,WeatherDisplay:10.37,2013-08-04 00:05:00,
2013-08-03 20:10:00,79.9,72.8,28.79,South,180,0.0,0.0,79,0.00,CLR,FEW,0.00,WeatherDisplay:10.37,2013-08-04 00:10:00,
2013-08-03 20:15:00,79.9,72.8,28.80,South,180,0.0,0.0,79,0.00,CLR,FEW,0.00,WeatherDisplay:10.37,2013-08-04 00:15:00,
2013-08-03 20:20:00,79.9,72.8,28.80,SSE,158,0.0,0.0,79,0.00,CLR,FEW,0.00,WeatherDisplay:10.37,2013-08-04 00:20:00,
2013-08-03 20:25:00,79.9,72.8,28.80,SSE,158,0.0,0.0,79,0.00,CLR,FEW,0.00,WeatherDisplay:10.37,2013-08-04 00:25:00,
2013-08-03 20:30:00,79.9,72.8,28.80,SSE,158,0.0,0.0,79,0.00,CLR,FEW,0.00,WeatherDisplay:10.37,2013-08-04 00:30:00,
2013-08-03 20:35:00,79.9,72.8,28.80,SSE,158,0.0,0.0,79,0.00,CLR,FEW,0.00,WeatherDisplay:10.37,2013-08-04 00:35:00,
2013-08-03 20:40:00,79.9,72.8,28.80,SSE,158,0.0,0.0,79,0.00,CLR,FEW,0.00,WeatherDisplay:10.37,2013-08-04 00:40:00,
2013-08-03 20:45:00,77.4,72.2,28.80,West,270,0.0,0.0,84,0.00,CLR,FEW,0.00,WeatherDisplay:10.37,2013-08-04 00:45:00,
2013-08-03 20:50:00,77.2,72.3,28.81,WNW,292,0.0,0.0,85,0.00,CLR,FEW,0.00,WeatherDisplay:10.37,2013-08-04 00:50:00,
2013-08-03 20:56:00,77.2,72.3,28.81,WNW,292,0.0,0.0,85,0.00,CLR,FEW,0.00,WeatherDisplay:10.37,2013-08-04 00:56:00,
2013-08-03 21:01:00,76.3,72.5,28.81,ESE,112,0.0,0.0,88,0.00,CLR,FEW,0.00,WeatherDisplay:10.37,2013-08-04 01:01:00,
2013-08-03 21:05:00,76.3,72.5,28.81,SE,135,0.0,0.0,88,0.00,CLR,FEW,0.00,WeatherDisplay:10.37,2013-08-04 01:05:00,
2013-08-03 21:11:00,75.9,72.1,28.80,SE,135,0.0,0.0,88,0.00,CLR,FEW,0.00,WeatherDisplay:10.37,2013-08-04 01:11:00,
2013-08-03 21:16:00,75.6,72.1,28.80,SSE,158,0.0,0.0,89,0.00,CLR,FEW,0.00,WeatherDisplay:10.37,2013-08-04 01:16:00,
2013-08-03 21:21:00,75.6,72.1,28.80,SSE,158,0.0,0.0,89,0.00,CLR,FEW,0.00,WeatherDisplay:10.37,2013-08-04 01:21:00,
2013-08-03 21:26:00,75.6,72.8,28.81,West,270,0.0,0.0,91,0.00,CLR,FEW,0.00,WeatherDisplay:10.37,2013-08-04 01:26:00,
2013-08-03 21:31:00,75.2,72.4,28.81,WNW,292,0.0,0.0,91,0.00,CLR,FEW,0.00,WeatherDisplay:10.37,2013-08-04 01:31:00,
2013-08-03 21:37:00,75.0,72.5,28.81,ESE,112,0.0,0.0,92,0.00,CLR,FEW,0.00,WeatherDisplay:10.37,2013-08-04 01:37:00,
2013-08-03 21:42:00,74.8,74.2,28.81,ESE,112,0.0,0.0,98,0.00,CLR,FEW,0.00,WeatherDisplay:10.37,2013-08-04 01:42:00,
2013-08-03 21:47:00,74.7,74.1,28.81,WSW,248,0.0,0.0,98,0.00,CLR,FEW,0.00,WeatherDisplay:10.37,2013-08-04 01:47:00,
2013-08-03 21:52:00,74.5,73.9,28.81,WSW,248,0.0,0.0,98,0.00,CLR,FEW,0.00,WeatherDisplay:10.37,2013-08-04 01:52:00,
2013-08-03 21:57:00,74.5,73.9,28.81,SW,225,2.3,2.3,98,0.00,CLR,FEW,0.00,WeatherDisplay:10.37,2013-08-04 01:57:00,
2013-08-03 22:02:00,74.5,73.9,28.82,West,270,1.2,1.2,98,0.00,CLR,FEW,0.00,WeatherDisplay:10.37,2013-08-04 02:02:00,
2013-08-03 22:07:00,74.5,73.9,28.82,WSW,248,0.0,0.0,98,0.00,CLR,FEW,0.00,WeatherDisplay:10.37,2013-08-04 02:07:00,
2013-08-03 22:12:00,74.5,73.9,28.82,WNW,292,0.0,0.0,98,0.00,CLR,FEW,0.00,WeatherDisplay:10.37,2013-08-04 02:12:00,
2013-08-03 22:17:00,74.3,73.7,28.82,NW,315,0.0,0.0,98,0.00,CLR,FEW,0.00,WeatherDisplay:10.37,2013-08-04 02:17:00,
2013-08-03 22:22:00,74.3,73.7,28.82,NW,315,0.0,0.0,98,0.00,CLR,FEW,0.00,WeatherDisplay:10.37,2013-08-04 02:22:00,
2013-08-03 22:27:00,74.3,73.7,28.82,SSE,158,0.0,0.0,98,0.00,CLR,FEW,0.00,WeatherDisplay:10.37,2013-08-04 02:27:00,
2013-08-03 22:32:00,74.3,73.7,28.82,SE,135,2.7,2.7,98,0.00,CLR,FEW,0.00,WeatherDisplay:10.37,2013-08-04 02:32:00,
2013-08-03 22:37:00,74.3,73.7,28.82,SE,135,0.0,0.0,98,0.00,CLR,FEW,0.00,WeatherDisplay:10.37,2013-08-04 02:37:00,
2013-08-03 22:42:00,73.9,73.3,28.82,WSW,248,0.0,0.0,98,0.00,CLR,FEW,0.00,WeatherDisplay:10.37,2013-08-04 02:42:00,
2013-08-03 22:47:00,73.9,73.3,28.82,WSW,248,0.0,0.0,98,0.00,CLR,FEW,0.00,WeatherDisplay:10.37,2013-08-04 02:47:00,
2013-08-03 22:53:00,73.9,73.3,28.82,WSW,248,0.0,0.0,98,0.00,CLR,FEW,0.00,WeatherDisplay:10.37,2013-08-04 02:53:00,
2013-08-03 22:57:00,73.6,73.0,28.82,West,270,1.7,1.7,98,0.00,CLR,FEW,0.00,WeatherDisplay:10.37,2013-08-04 02:57:00,
2013-08-03 23:03:00,73.6,73.0,28.83,West,270,2.3,2.3,98,0.00,CLR,FEW,0.00,WeatherDisplay:10.37,2013-08-04 03:03:00,
2013-08-03 23:08:00,73.6,73.0,28.83,SW,225,2.3,2.3,98,0.00,CLR,FEW,0.00,WeatherDisplay:10.37,2013-08-04 03:08:00,
2013-08-03 23:13:00,73.4,72.8,28.83,WSW,248,0.0,0.0,98,0.00,CLR,FEW,0.00,WeatherDisplay:10.37,2013-08-04 03:13:00,
2013-08-03 23:18:00,73.4,72.8,28.83,SW,225,0.0,0.0,98,0.00,CLR,FEW,0.00,WeatherDisplay:10.37,2013-08-04 03:18:00,
2013-08-03 23:23:00,73.2,72.6,28.83,West,270,0.0,0.0,98,0.00,CLR,FEW,0.00,WeatherDisplay:10.37,2013-08-04 03:23:00,
2013-08-03 23:28:00,73.0,72.4,28.83,SW,225,1.2,1.2,98,0.00,CLR,FEW,0.00,WeatherDisplay:10.37,2013-08-04 03:28:00,
2013-08-03 23:33:00,73.0,72.4,28.83,SW,225,0.0,0.0,98,0.00,CLR,FEW,0.00,WeatherDisplay:10.37,2013-08-04 03:33:00,
2013-08-03 23:38:00,72.9,72.3,28.83,WSW,248,0.0,0.0,98,0.00,CLR,FEW,0.00,WeatherDisplay:10.37,2013-08-04 03:38:00,
2013-08-03 23:43:00,72.9,72.3,28.83,South,180,0.0,0.0,98,0.00,CLR,FEW,0.00,WeatherDisplay:10.37,2013-08-04 03:43:00,
2013-08-03 23:48:00,74.3,73.7,28.83,SSE,158,2.7,2.7,98,0.00,CLR,FEW,0.00,WeatherDisplay:10.37,2013-08-04 03:48:00,
2013-08-03 23:53:00,73.0,72.4,28.83,ESE,112,0.0,0.0,98,0.00,CLR,FEW,0.00,WeatherDisplay:10.37,2013-08-04 03:53:00,
2013-08-03 23:58:00,72.9,72.3,28.83,NE,45,0.0,0.0,98,0.00,CLR,FEW,0.00,WeatherDisplay:10.37,2013-08-04 03:58:00,